createdAt,value
2023-05-14T00:00:22.276Z,10.15
2023-05-14T00:02:51.202Z,9.90
2023-05-14T00:05:19.863Z,11.35
2023-05-14T00:07:48.629Z,11.10
2023-05-14T00:10:20.732Z,10.38
2023-05-14T00:12:49.408Z,10.45
2023-05-14T00:15:17.816Z,10.52
2023-05-14T00:17:46.493Z,10.52
2023-05-14T00:20:14.977Z,10.65
2023-05-14T00:22:43.670Z,11.52
2023-05-14T00:25:12.268Z,13.23
2023-05-14T00:27:42.062Z,13.70
2023-05-14T00:30:10.729Z,12.38
2023-05-14T00:32:39.213Z,12.98
2023-05-14T00:35:08.220Z,13.55
2023-05-14T00:37:37.471Z,12.43
2023-05-14T00:40:06.900Z,12.48
2023-05-14T00:42:35.384Z,13.02
2023-05-14T00:45:05.469Z,12.55
2023-05-14T00:47:34.818Z,12.98
2023-05-14T00:50:03.467Z,11.82
2023-05-14T00:52:32.211Z,11.40
2023-05-14T00:55:02.572Z,12.18
2023-05-14T00:57:31.076Z,12.75
2023-05-14T00:59:59.808Z,12.60
2023-05-14T01:02:29.754Z,12.57
2023-05-14T01:04:58.761Z,13.43
2023-05-14T01:07:32.390Z,13.55
2023-05-14T01:10:02.989Z,14.27
2023-05-14T01:12:35.859Z,13.30
2023-05-14T01:15:06.959Z,13.52
2023-05-14T01:17:39.961Z,15.43
2023-05-14T01:20:09.278Z,14.25
2023-05-14T01:22:39.120Z,14.27
2023-05-14T01:25:08.139Z,14.32
2023-05-14T01:27:40.186Z,14.60
2023-05-14T01:30:11.861Z,15.55
2023-05-14T01:32:41.274Z,15.27
2023-05-14T01:35:10.420Z,15.43
2023-05-14T01:37:41.085Z,14.90
2023-05-14T01:40:10.556Z,15.70
2023-05-14T01:42:39.278Z,15.77
2023-05-14T01:45:08.058Z,15.55
2023-05-14T01:47:36.604Z,15.15
2023-05-14T01:50:05.168Z,15.45
2023-05-14T01:52:33.672Z,14.80
2023-05-14T01:55:05.165Z,15.13
2023-05-14T01:57:33.599Z,15.45
2023-05-14T02:00:02.040Z,15.23
2023-05-14T02:02:30.702Z,15.43
2023-05-14T02:04:59.174Z,14.93
2023-05-14T02:07:28.871Z,16.48
2023-05-14T02:09:57.324Z,16.25
2023-05-14T02:12:27.436Z,16.33
2023-05-14T02:14:56.140Z,17.05
2023-05-14T02:17:24.958Z,16.00
2023-05-14T02:19:53.397Z,15.75
2023-05-14T02:22:23.846Z,16.63
2023-05-14T02:24:52.299Z,16.02
2023-05-14T02:27:21.450Z,15.90
2023-05-14T02:29:51.259Z,16.23
2023-05-14T02:32:19.710Z,15.77
2023-05-14T02:34:48.202Z,17.05
2023-05-14T02:37:16.683Z,16.35
2023-05-14T02:39:45.179Z,16.98
2023-05-14T02:42:13.693Z,15.85
2023-05-14T02:44:42.143Z,17.20
2023-05-14T02:47:12.231Z,15.10
2023-05-14T02:49:41.722Z,16.05
2023-05-14T02:52:10.126Z,15.70
2023-05-14T02:54:38.724Z,14.90
2023-05-14T02:57:07.394Z,15.43
2023-05-14T02:59:36.459Z,15.82
2023-05-14T03:02:05.796Z,15.55
2023-05-14T03:04:36.121Z,16.35
2023-05-14T03:07:04.554Z,15.68
2023-05-14T03:09:33.001Z,16.20
2023-05-14T03:12:02.027Z,16.50
2023-05-14T03:14:30.790Z,16.17
2023-05-14T03:16:59.346Z,16.65
2023-05-14T03:19:27.892Z,15.68
2023-05-14T03:21:57.719Z,15.63
2023-05-14T03:24:26.139Z,16.08
2023-05-14T03:26:54.583Z,15.93
2023-05-14T03:29:23.062Z,15.55
2023-05-14T03:31:51.579Z,16.80
2023-05-14T03:34:20.103Z,16.30
2023-05-14T03:36:48.585Z,16.90
2023-05-14T03:39:19.776Z,16.80
2023-05-14T03:41:48.351Z,17.75
2023-05-14T03:44:16.929Z,15.77
2023-05-14T03:46:45.529Z,16.40
2023-05-14T03:49:13.973Z,16.95
2023-05-14T03:51:42.430Z,15.63
2023-05-14T03:54:11.599Z,16.38
2023-05-14T03:56:41.396Z,17.45
2023-05-14T03:59:09.821Z,18.23
2023-05-14T04:01:38.243Z,16.98
2023-05-14T04:04:06.980Z,17.63
2023-05-14T04:06:35.579Z,18.40
2023-05-14T04:09:04.335Z,16.83
2023-05-14T04:11:32.767Z,18.17
2023-05-14T04:14:02.727Z,16.88
2023-05-14T04:16:31.195Z,16.98
2023-05-14T04:18:59.738Z,17.70
2023-05-14T04:21:28.332Z,17.15
2023-05-14T04:23:56.836Z,17.40
2023-05-14T04:26:25.575Z,17.52
2023-05-14T04:28:54.254Z,17.77
2023-05-14T04:31:24.168Z,17.05
2023-05-14T04:33:52.937Z,17.90
2023-05-14T04:36:21.480Z,17.17
2023-05-14T04:38:49.925Z,18.20
2023-05-14T04:41:18.362Z,16.98
2023-05-14T04:43:47.032Z,16.88
2023-05-14T04:46:15.907Z,17.30
2023-05-14T04:48:45.781Z,18.90
2023-05-14T04:51:14.308Z,17.67
2023-05-14T04:53:42.727Z,18.27
2023-05-14T04:56:11.224Z,17.08
2023-05-14T04:58:39.649Z,17.60
2023-05-14T05:01:08.262Z,17.83
2023-05-14T05:03:36.792Z,18.52
2023-05-14T05:06:07.139Z,18.02
2023-05-14T05:08:35.648Z,18.50
2023-05-14T05:11:04.129Z,17.83
2023-05-14T05:13:33.272Z,18.17
2023-05-14T05:16:02.121Z,19.15
2023-05-14T05:18:30.632Z,17.70
2023-05-14T05:20:59.076Z,17.98
2023-05-14T05:23:29.066Z,16.98
2023-05-14T05:25:57.484Z,17.85
2023-05-14T05:28:25.965Z,18.05
2023-05-14T05:30:54.467Z,17.80
2023-05-14T05:33:23.027Z,17.75
2023-05-14T05:35:52.501Z,18.30
2023-05-14T05:38:20.982Z,20.10
2023-05-14T05:40:51.015Z,19.80
2023-05-14T05:43:19.937Z,18.95
2023-05-14T05:45:48.640Z,19.10
2023-05-14T05:48:17.079Z,18.38
2023-05-14T05:50:47.543Z,18.15
2023-05-14T05:53:16.766Z,18.20
2023-05-14T05:55:45.249Z,19.30
2023-05-14T05:58:17.271Z,19.23
2023-05-14T06:00:45.790Z,19.77
2023-05-14T06:03:14.391Z,19.92
2023-05-14T06:05:43.055Z,20.45
2023-05-14T06:08:11.519Z,19.33
2023-05-14T06:10:40.048Z,19.33
2023-05-14T06:13:08.513Z,20.67
2023-05-14T06:15:38.324Z,20.85
2023-05-14T06:18:06.988Z,20.77
2023-05-14T06:20:36.324Z,19.80
2023-05-14T06:23:04.808Z,19.27
2023-05-14T06:25:33.268Z,19.10
2023-05-14T06:28:01.794Z,18.73
2023-05-14T06:30:30.294Z,17.98
2023-05-14T06:33:00.706Z,17.13
2023-05-14T06:35:29.225Z,17.52
2023-05-14T06:37:57.756Z,17.33
2023-05-14T06:40:26.361Z,18.25
2023-05-14T06:42:54.901Z,17.42
2023-05-14T06:45:23.321Z,17.05
2023-05-14T06:47:51.979Z,17.42
2023-05-14T06:50:22.046Z,16.92
2023-05-14T06:52:50.689Z,17.27
2023-05-14T06:55:19.314Z,16.48
2023-05-14T06:57:47.770Z,17.38
2023-05-14T07:00:16.956Z,17.35
2023-05-14T07:02:45.713Z,17.15
2023-05-14T07:05:14.249Z,16.83
2023-05-14T07:07:44.273Z,17.13
2023-05-14T07:10:13.172Z,15.27
2023-05-14T07:12:41.633Z,15.65
2023-05-14T07:15:10.793Z,13.45
2023-05-14T07:17:39.379Z,13.98
2023-05-14T07:20:08.748Z,12.13
2023-05-14T07:22:37.181Z,12.43
2023-05-14T07:25:07.931Z,13.07
2023-05-14T07:27:36.354Z,13.00
2023-05-14T07:30:04.883Z,13.40
2023-05-14T07:32:33.317Z,12.13
2023-05-14T07:35:02.211Z,12.23
2023-05-14T07:37:30.662Z,10.70
2023-05-14T07:39:59.253Z,10.30
2023-05-14T07:42:36.802Z,9.80
2023-05-14T07:45:06.198Z,10.00
2023-05-14T07:47:34.803Z,9.25
2023-05-14T07:50:03.652Z,8.80
2023-05-14T07:52:32.103Z,8.10
2023-05-14T07:55:01.415Z,8.20
2023-05-14T07:57:31.278Z,9.43
2023-05-14T07:59:59.700Z,8.68
2023-05-14T08:02:28.661Z,8.05
2023-05-14T08:04:57.222Z,8.20
2023-05-14T08:07:27.403Z,7.68
2023-05-14T08:09:57.081Z,8.80
2023-05-14T08:12:25.577Z,8.00
2023-05-14T08:14:55.401Z,8.18
2023-05-14T08:17:23.907Z,8.18
2023-05-14T08:19:52.771Z,7.38
2023-05-14T08:22:21.810Z,6.90
2023-05-14T08:24:50.334Z,7.43
2023-05-14T08:27:18.767Z,8.55
2023-05-14T08:29:47.252Z,7.32
2023-05-14T08:32:23.347Z,7.13
2023-05-14T08:34:52.870Z,7.50
2023-05-14T08:37:21.380Z,5.82
2023-05-14T08:39:49.842Z,4.53
2023-05-14T08:42:23.042Z,4.57
2023-05-14T08:44:55.180Z,4.78
2023-05-14T08:47:25.393Z,4.13
2023-05-14T08:49:56.049Z,3.97
2023-05-14T08:52:24.786Z,4.10
2023-05-14T08:54:54.970Z,4.40
2023-05-14T08:57:24.914Z,3.97
2023-05-14T08:59:53.849Z,4.50
2023-05-14T09:02:24.172Z,4.07
2023-05-14T09:04:57.105Z,4.47
2023-05-14T09:07:25.602Z,4.10
2023-05-14T09:09:54.450Z,3.95
2023-05-14T09:12:23.329Z,4.22
2023-05-14T09:14:52.062Z,4.50
2023-05-14T09:17:20.796Z,4.63
2023-05-14T09:19:52.907Z,4.25
2023-05-14T09:22:22.943Z,4.55
2023-05-14T09:25:03.863Z,4.20
2023-05-14T09:27:32.733Z,4.47
2023-05-14T09:30:06.441Z,4.25
2023-05-14T09:32:38.435Z,4.32
2023-05-14T09:35:14.684Z,3.40
2023-05-14T09:37:44.956Z,3.42
2023-05-14T09:40:13.572Z,3.55
2023-05-14T09:42:42.391Z,3.90
2023-05-14T09:45:11.328Z,3.65
2023-05-14T09:47:40.425Z,4.10
2023-05-14T09:50:09.493Z,3.80
2023-05-14T09:52:37.946Z,3.72
2023-05-14T09:55:08.497Z,3.95
2023-05-14T09:57:37.283Z,3.55
2023-05-14T10:00:06.808Z,3.80
2023-05-14T10:02:38.308Z,3.88
2023-05-14T10:05:07.698Z,3.80
2023-05-14T10:07:38.920Z,4.15
2023-05-14T10:10:09.924Z,3.88
2023-05-14T10:12:40.836Z,3.60
2023-05-14T10:15:14.972Z,3.47
2023-05-14T10:17:46.308Z,3.60
2023-05-14T10:20:17.487Z,3.50
2023-05-14T10:22:46.133Z,3.55
2023-05-14T10:25:16.297Z,3.53
2023-05-14T10:27:45.173Z,3.53
2023-05-14T10:30:14.320Z,3.97
2023-05-14T10:32:44.322Z,3.67
2023-05-14T10:35:25.453Z,3.35
2023-05-14T10:37:53.927Z,3.45
2023-05-14T10:40:25.997Z,3.35
2023-05-14T10:42:55.198Z,3.38
2023-05-14T10:45:25.208Z,3.88
2023-05-14T10:47:53.719Z,3.33
2023-05-14T10:50:23.834Z,3.67
2023-05-14T10:52:55.273Z,2.95
2023-05-14T10:55:25.284Z,3.67
2023-05-14T10:57:54.298Z,3.17
2023-05-14T11:00:28.135Z,3.05
2023-05-14T11:02:58.468Z,3.50
2023-05-14T11:05:27.744Z,3.33
2023-05-14T11:08:01.005Z,3.13
2023-05-14T11:10:31.256Z,3.65
2023-05-14T11:13:00.073Z,3.30
2023-05-14T11:15:29.900Z,3.03
2023-05-14T11:17:58.478Z,3.38
2023-05-14T11:20:29.122Z,3.17
2023-05-14T11:22:57.601Z,3.03
2023-05-14T11:25:26.166Z,3.30
2023-05-14T11:27:58.842Z,3.30
2023-05-14T11:30:27.486Z,3.28
2023-05-14T11:32:56.095Z,3.05
2023-05-14T11:35:24.694Z,3.30
2023-05-14T11:37:53.582Z,3.58
2023-05-14T11:40:22.492Z,3.20
2023-05-14T11:42:53.490Z,3.10
2023-05-14T11:45:29.872Z,3.17
2023-05-14T11:47:58.506Z,3.13
2023-05-14T11:50:27.192Z,3.00
2023-05-14T11:52:58.671Z,3.42
2023-05-14T11:55:27.262Z,3.20
2023-05-14T11:57:56.099Z,3.10
2023-05-14T12:00:25.099Z,3.08
2023-05-14T12:02:56.261Z,2.72
2023-05-14T12:05:24.769Z,3.20
2023-05-14T12:07:53.208Z,3.25
2023-05-14T12:10:21.916Z,3.38
2023-05-14T12:12:51.023Z,3.65
2023-05-14T12:15:21.838Z,3.45
2023-05-14T12:17:53.503Z,3.45
2023-05-14T12:20:28.616Z,3.13
2023-05-14T12:22:57.141Z,3.42
2023-05-14T12:25:27.438Z,3.42
2023-05-14T12:27:55.949Z,3.13
2023-05-14T12:30:24.480Z,3.20
2023-05-14T12:32:53.832Z,3.40
2023-05-14T12:35:24.328Z,3.15
2023-05-14T12:37:53.028Z,3.00
2023-05-14T12:40:21.777Z,2.97
2023-05-14T12:42:50.567Z,3.13
2023-05-14T12:45:19.456Z,3.20
2023-05-14T12:47:50.375Z,3.97
2023-05-14T12:50:18.798Z,3.17
2023-05-14T12:52:51.102Z,3.60
2023-05-14T12:55:19.694Z,3.17
2023-05-14T12:57:48.348Z,3.40
2023-05-14T13:00:17.096Z,3.50
2023-05-14T13:02:45.981Z,3.33
2023-05-14T13:05:14.554Z,3.00
2023-05-14T13:07:43.057Z,3.05
2023-05-14T13:10:13.473Z,2.92
2023-05-14T13:12:42.018Z,2.80
2023-05-14T13:15:11.836Z,2.97
2023-05-14T13:17:41.373Z,2.85
2023-05-14T13:20:12.570Z,3.05
2023-05-14T13:22:41.146Z,3.30
2023-05-14T13:25:10.022Z,3.25
2023-05-14T13:27:39.935Z,2.95
2023-05-14T13:30:09.039Z,3.13
2023-05-14T13:32:37.530Z,2.97
2023-05-14T13:35:07.776Z,3.63
2023-05-14T13:37:36.306Z,3.47
2023-05-14T13:40:07.396Z,3.03
2023-05-14T13:42:35.989Z,3.13
2023-05-14T13:45:06.336Z,2.83
2023-05-14T13:47:34.805Z,3.22
2023-05-14T13:50:03.433Z,3.25
2023-05-14T13:52:32.669Z,3.17
2023-05-14T13:55:01.146Z,2.97
2023-05-14T13:57:29.660Z,3.30
2023-05-14T13:59:58.134Z,3.10
2023-05-14T14:02:28.813Z,3.20
2023-05-14T14:06:29.458Z,3.40
2023-05-14T14:08:58.082Z,3.60
2023-05-14T14:11:26.615Z,3.40
2023-05-14T14:13:55.125Z,3.20
2023-05-14T14:16:23.676Z,3.90
2023-05-14T14:18:52.263Z,3.38
2023-05-14T14:21:21.117Z,3.70
2023-05-14T14:23:51.027Z,2.80
2023-05-14T14:26:19.496Z,3.25
2023-05-14T14:31:22.248Z,2.92
2023-05-14T14:33:50.808Z,2.83
2023-05-14T14:36:19.316Z,3.38
2023-05-14T14:38:47.844Z,3.40
2023-05-14T14:41:16.495Z,2.88
2023-05-14T14:43:45.076Z,2.90
2023-05-14T14:49:02.984Z,2.92
2023-05-14T14:51:31.509Z,3.20
2023-05-14T14:54:00.044Z,3.20
2023-05-14T14:56:28.591Z,3.03
2023-05-14T14:58:57.126Z,2.90
2023-05-14T15:01:25.834Z,3.30
2023-05-14T15:03:54.495Z,3.08
2023-05-14T15:06:24.339Z,3.13
2023-05-14T15:08:52.892Z,3.55
2023-05-14T15:11:21.524Z,3.03
2023-05-14T15:13:49.986Z,3.22
2023-05-14T15:16:18.507Z,2.97
2023-05-14T15:18:47.386Z,3.17
2023-05-14T15:21:15.929Z,3.88
2023-05-14T15:23:45.838Z,3.05
2023-05-14T15:26:14.272Z,3.47
2023-05-14T15:28:42.860Z,3.35
2023-05-14T15:31:11.408Z,3.15
2023-05-14T15:33:41.856Z,3.10
2023-05-14T15:36:10.646Z,3.47
2023-05-14T15:38:39.182Z,3.50
2023-05-14T15:41:09.066Z,3.13
2023-05-14T15:43:37.641Z,2.83
2023-05-14T15:46:06.263Z,3.20
2023-05-14T15:48:35.940Z,3.03
2023-05-14T15:51:04.411Z,3.10
2023-05-14T15:53:32.949Z,3.40
2023-05-14T15:56:01.479Z,3.50
2023-05-14T15:58:31.358Z,3.35
2023-05-14T16:00:59.822Z,3.42
2023-05-14T16:03:28.396Z,3.40
2023-05-14T16:05:57.262Z,3.30
2023-05-14T16:08:28.111Z,3.55
2023-05-14T16:10:56.670Z,3.38
2023-05-14T16:13:27.929Z,3.30
2023-05-14T16:15:59.566Z,3.50
2023-05-14T16:18:28.195Z,3.85
2023-05-14T16:20:57.335Z,3.33
2023-05-14T16:23:25.898Z,3.60
2023-05-14T16:25:54.747Z,3.80
2023-05-14T16:28:23.258Z,3.67
2023-05-14T16:30:51.793Z,4.15
2023-05-14T16:33:21.684Z,4.18
2023-05-14T16:35:51.275Z,4.07
2023-05-14T16:38:20.274Z,3.85
2023-05-14T16:40:48.796Z,4.05
2023-05-14T16:43:17.343Z,3.92
2023-05-14T16:45:45.931Z,4.53
2023-05-14T16:48:14.783Z,4.95
2023-05-14T16:50:44.736Z,4.07
2023-05-14T16:53:13.339Z,4.07
2023-05-14T16:55:41.862Z,4.28
2023-05-14T16:58:10.682Z,4.53
2023-05-14T17:00:39.225Z,4.07
2023-05-14T17:03:07.832Z,4.40
2023-05-14T17:05:36.410Z,4.00
2023-05-14T17:08:06.866Z,3.60
2023-05-14T17:10:35.882Z,4.28
2023-05-14T17:13:05.865Z,4.18
2023-05-14T17:15:34.569Z,4.20
2023-05-14T17:18:03.120Z,3.78
2023-05-14T17:20:31.793Z,4.05
2023-05-14T17:23:00.251Z,4.22
2023-05-14T17:25:30.195Z,3.88
2023-05-14T17:27:58.705Z,4.10
2023-05-14T17:30:27.197Z,4.30
2023-05-14T17:32:56.151Z,4.18
2023-05-14T17:35:24.973Z,4.47
2023-05-14T17:37:53.609Z,3.97
2023-05-14T17:40:22.097Z,4.13
2023-05-14T17:42:51.940Z,4.38
2023-05-14T17:45:20.870Z,4.50
2023-05-14T17:47:51.338Z,4.38
2023-05-14T17:50:20.202Z,4.20
2023-05-14T17:52:48.842Z,3.97
2023-05-14T17:55:19.374Z,4.30
2023-05-14T17:57:48.034Z,4.45
2023-05-14T18:00:18.422Z,3.85
2023-05-14T18:02:47.408Z,4.40
2023-05-14T18:05:17.089Z,4.05
2023-05-14T18:07:46.826Z,4.70
2023-05-14T18:10:15.698Z,4.43
2023-05-14T18:12:44.441Z,4.38
2023-05-14T18:15:12.962Z,4.18
2023-05-14T18:17:42.975Z,4.80
2023-05-14T18:20:11.962Z,4.25
2023-05-14T18:22:40.779Z,4.40
2023-05-14T18:25:09.676Z,4.10
2023-05-14T18:27:44.109Z,4.22
2023-05-14T18:30:14.122Z,4.18
2023-05-14T18:32:44.545Z,4.10
2023-05-14T18:35:13.490Z,4.35
2023-05-14T18:37:42.019Z,3.70
2023-05-14T18:40:11.357Z,4.70
2023-05-14T18:42:39.874Z,3.83
2023-05-14T18:45:08.695Z,4.13
2023-05-14T18:47:37.705Z,4.00
2023-05-14T18:50:08.559Z,4.40
2023-05-14T18:52:37.232Z,4.70
2023-05-14T18:55:06.036Z,3.90
2023-05-14T18:57:34.572Z,4.45
2023-05-14T19:00:05.381Z,4.38
2023-05-14T19:02:34.042Z,4.45
2023-05-14T19:05:02.615Z,4.72
2023-05-14T19:07:32.911Z,4.35
2023-05-14T19:10:01.591Z,5.13
2023-05-14T19:12:30.282Z,4.57
2023-05-14T19:14:58.903Z,4.25
2023-05-14T19:17:29.027Z,4.70
2023-05-14T19:19:57.553Z,4.57
2023-05-14T19:22:26.030Z,4.53
2023-05-14T19:24:55.802Z,5.07
2023-05-14T19:27:24.419Z,5.18
2023-05-14T19:29:53.008Z,4.78
2023-05-14T19:32:21.533Z,4.32
2023-05-14T19:34:51.540Z,4.80
2023-05-14T19:37:20.185Z,4.53
2023-05-14T19:39:49.045Z,4.75
2023-05-14T19:42:19.515Z,5.00
2023-05-14T19:44:47.987Z,4.63
2023-05-14T19:47:17.212Z,4.68
2023-05-14T19:49:45.917Z,5.18
2023-05-14T19:52:14.573Z,4.57
2023-05-14T19:54:43.048Z,5.32
2023-05-14T19:57:11.842Z,5.43
2023-05-14T19:59:41.856Z,5.28
2023-05-14T20:02:12.437Z,5.20
2023-05-14T20:04:41.102Z,5.03
2023-05-14T20:07:10.632Z,4.57
2023-05-14T20:09:39.549Z,5.30
2023-05-14T20:12:08.906Z,5.07
2023-05-14T20:14:37.895Z,5.20
2023-05-14T20:17:08.491Z,5.22
2023-05-14T20:19:37.548Z,5.88
2023-05-14T20:22:06.466Z,6.05
2023-05-14T20:24:35.177Z,6.40
2023-05-14T20:27:04.000Z,6.50
2023-05-14T20:29:32.902Z,5.70
2023-05-14T20:32:01.583Z,5.30
2023-05-14T20:34:31.484Z,5.65
2023-05-14T20:36:59.931Z,5.28
2023-05-14T20:39:28.361Z,5.32
2023-05-14T20:41:56.821Z,4.88
2023-05-14T20:44:25.897Z,5.15
2023-05-14T20:46:54.398Z,5.10
2023-05-14T20:49:22.913Z,5.15
2023-05-14T20:51:52.735Z,5.60
2023-05-14T20:54:21.261Z,5.25
2023-05-14T20:56:49.693Z,4.82
2023-05-14T20:59:18.818Z,5.20
2023-05-14T21:01:47.433Z,6.65
2023-05-14T21:04:16.484Z,6.20
2023-05-14T21:06:45.363Z,7.22
2023-05-14T21:09:15.357Z,7.10
2023-05-14T21:11:44.596Z,6.95
2023-05-14T21:14:13.406Z,6.18
2023-05-14T21:16:42.310Z,6.30
2023-05-14T21:19:13.199Z,5.78
2023-05-14T21:21:42.750Z,6.35
2023-05-14T21:24:11.535Z,6.18
2023-05-14T21:26:42.624Z,5.70
2023-05-14T21:29:11.126Z,6.00
2023-05-14T21:31:39.616Z,5.88
2023-05-14T21:34:08.264Z,6.13
2023-05-14T21:36:36.972Z,6.20
2023-05-14T21:39:06.577Z,6.10
2023-05-14T21:41:35.201Z,6.18
2023-05-14T21:44:05.365Z,6.65
2023-05-14T21:46:34.133Z,7.22
2023-05-14T21:49:03.155Z,7.70
2023-05-14T21:51:32.154Z,8.07
2023-05-14T21:54:00.663Z,7.13
2023-05-14T21:56:29.211Z,8.73
2023-05-14T21:58:57.903Z,8.65
2023-05-14T22:01:27.889Z,7.90
2023-05-14T22:03:57.827Z,8.05
2023-05-14T22:06:26.679Z,8.30
2023-05-14T22:08:55.243Z,8.98
2023-05-14T22:11:23.811Z,8.65
2023-05-14T22:13:52.294Z,9.07
2023-05-14T22:16:22.326Z,8.10
2023-05-14T22:18:52.497Z,9.00
2023-05-14T22:21:21.030Z,9.73
2023-05-14T22:23:50.357Z,8.90
2023-05-14T22:26:18.783Z,9.85
2023-05-14T22:28:48.654Z,8.88
2023-05-14T22:31:17.277Z,9.48
2023-05-14T22:33:45.866Z,10.70
2023-05-14T22:36:15.787Z,11.35
2023-05-14T22:38:44.303Z,10.77
2023-05-14T22:41:12.836Z,11.68
2023-05-14T22:43:41.318Z,11.13
2023-05-14T22:46:09.820Z,12.10
2023-05-14T22:48:38.341Z,12.35
2023-05-14T22:51:07.326Z,13.35
2023-05-14T22:53:37.124Z,13.02
2023-05-14T22:56:05.770Z,14.02
2023-05-14T22:58:34.319Z,14.93
2023-05-14T23:01:02.735Z,14.45
2023-05-14T23:03:31.200Z,14.25
2023-05-14T23:05:59.789Z,15.68
2023-05-14T23:08:28.193Z,14.30
2023-05-14T23:10:58.015Z,15.68
2023-05-14T23:13:26.795Z,15.70
2023-05-14T23:15:55.273Z,14.85
2023-05-14T23:18:24.223Z,15.88
2023-05-14T23:20:52.881Z,15.00
2023-05-14T23:23:21.318Z,15.30
2023-05-14T23:25:50.211Z,15.52
2023-05-14T23:28:20.219Z,15.85
2023-05-14T23:30:48.673Z,15.88
2023-05-14T23:33:17.231Z,17.13
2023-05-14T23:35:46.080Z,16.90
2023-05-14T23:38:14.537Z,16.52
2023-05-14T23:40:43.013Z,17.13
2023-05-14T23:43:11.585Z,17.92
2023-05-14T23:45:41.447Z,18.55
2023-05-14T23:48:09.952Z,17.77
2023-05-14T23:50:38.358Z,17.92
2023-05-14T23:53:07.303Z,20.05
2023-05-14T23:55:35.986Z,20.25
2023-05-14T23:58:04.910Z,21.25
